Time;durP1;ratioP1;P1;durP2;ratioP2;P2;SDS_P1;SDS_P2;PMS_P1;PMS_P2;Temp;Humidity;BMP_temperature;BMP_pressure;BME280_temperature;BME280_humidity;BME280_pressure;Samples;Min_cycle;Max_cycle;Signal;HPM_P1;HPM_P2
2022/08/03 00:01:36;;;;;;;6.43;2.33;;;;;;;21.23;70.90;101280.94;5079853;28;20790;-74
2022/08/03 00:04:03;;;;;;;4.18;2.47;;;;;;;21.19;70.79;101277.94;5095877;28;20458;-75
2022/08/03 00:06:28;;;;;;;5.03;2.10;;;;;;;21.12;71.51;101284.28;5081576;28;20027;-75
2022/08/03 00:08:53;;;;;;;4.47;2.47;;;;;;;21.03;71.67;101286.34;5087240;28;20089;-75
2022/08/03 00:11:19;;;;;;;4.70;2.42;;;;;;;20.95;72.11;101286.63;5082448;28;20035;-75
2022/08/03 00:13:45;;;;;;;5.28;2.40;;;;;;;20.92;72.10;101281.78;5085200;28;20476;-75
2022/08/03 00:16:12;;;;;;;6.53;2.63;;;;;;;20.92;72.39;101279.13;5080787;28;20476;-75
2022/08/03 00:18:37;;;;;;;4.55;1.98;;;;;;;20.94;72.11;101277.09;5082709;28;20050;-75
2022/08/03 00:21:04;;;;;;;3.83;2.05;;;;;;;20.93;71.92;101281.56;5082481;28;20059;-75
2022/08/03 00:23:29;;;;;;;4.57;2.50;;;;;;;20.90;72.25;101275.91;5083022;28;20588;-74
2022/08/03 00:25:55;;;;;;;5.18;2.47;;;;;;;20.84;72.39;101271.50;5080437;28;20111;-75
2022/08/03 00:28:20;;;;;;;8.00;2.30;;;;;;;20.78;72.67;101273.16;5085142;28;20027;-75
2022/08/03 00:30:46;;;;;;;11.05;2.50;;;;;;;20.75;72.63;101277.00;5079783;28;20028;-75
2022/08/03 00:33:11;;;;;;;3.70;2.17;;;;;;;20.74;72.48;101267.50;5085233;28;20024;-75
2022/08/03 00:35:37;;;;;;;3.83;2.17;;;;;;;20.73;72.95;101267.69;5083280;28;20540;-75
2022/08/03 00:38:03;;;;;;;6.95;2.03;;;;;;;20.72;72.84;101271.34;5088641;28;20040;-74
2022/08/03 00:40:28;;;;;;;8.23;2.88;;;;;;;20.71;72.62;101265.28;5077667;28;20036;-75
2022/08/03 00:42:59;;;;;;;5.60;2.67;;;;;;;20.70;72.63;101262.84;5082215;28;20058;-76
2022/08/03 00:45:34;;;;;;;5.47;2.42;;;;;;;20.64;73.09;101267.13;5083595;28;20039;-76
2022/08/03 00:48:01;;;;;;;6.50;2.58;;;;;;;20.56;73.54;101259.47;5101822;28;20470;-75
2022/08/03 00:50:28;;;;;;;5.25;2.97;;;;;;;20.52;73.87;101256.44;5065038;28;20089;-75
2022/08/03 00:52:56;;;;;;;6.32;3.47;;;;;;;20.52;73.73;101260.91;5085761;28;20466;-75
2022/08/03 00:55:21;;;;;;;4.00;2.10;;;;;;;20.56;73.65;101259.47;5084620;28;20389;-74
2022/08/03 00:57:48;;;;;;;5.45;1.80;;;;;;;20.57;73.29;101258.47;5083055;28;20040;-74
2022/08/03 01:00:16;;;;;;;4.18;2.53;;;;;;;20.56;73.72;101262.09;5086521;28;20024;-75
2022/08/03 01:02:42;;;;;;;7.90;2.30;;;;;;;20.53;73.81;101257.25;5085791;28;20040;-76
2022/08/03 01:05:09;;;;;;;4.85;2.25;;;;;;;20.50;73.90;101258.47;5086660;28;20401;-76
2022/08/03 01:08:00;;;;;;;3.97;2.53;;;;;;;20.44;74.45;101267.22;5085477;28;20032;-76
2022/08/03 01:10:41;;;;;;;5.55;2.50;;;;;;;20.37;74.79;101267.25;5085320;28;20493;-76
2022/08/03 01:13:07;;;;;;;5.30;2.03;;;;;;;20.30;74.84;101261.19;5087446;28;20144;-76
2022/08/03 01:16:03;;;;;;;6.75;2.65;;;;;;;20.23;75.36;101265.69;5087593;28;20038;-76
2022/08/03 01:18:41;;;;;;;9.15;2.58;;;;;;;20.15;75.98;101265.91;5084431;28;20031;-76
2022/08/03 01:21:13;;;;;;;5.35;2.45;;;;;;;20.15;76.18;101260.66;5085099;28;21057;-76
2022/08/03 01:23:50;;;;;;;8.00;2.42;;;;;;;20.16;75.95;101254.38;5086265;28;20036;-76
2022/08/03 01:26:47;;;;;;;3.58;2.42;;;;;;;20.19;75.26;101262.69;5086657;28;20032;-76
2022/08/03 01:29:31;;;;;;;4.55;1.80;;;;;;;20.21;75.16;101267.72;5079603;28;20024;-76
2022/08/03 01:32:01;;;;;;;6.90;2.13;;;;;;;20.19;75.32;101262.69;5085185;28;20538;-76
2022/08/03 01:34:31;;;;;;;4.68;2.70;;;;;;;20.11;75.71;101265.53;5082838;28;20399;-76
2022/08/03 01:36:59;;;;;;;4.65;2.63;;;;;;;20.05;75.92;101261.09;5080354;28;20085;-76
2022/08/03 01:39:29;;;;;;;6.63;2.13;;;;;;;20.01;76.02;101265.97;5083293;28;20057;-76
2022/08/03 01:41:58;;;;;;;2.88;2.00;;;;;;;20.02;75.86;101261.50;5087398;28;20089;-76
2022/08/03 01:44:26;;;;;;;3.53;1.90;;;;;;;19.99;75.74;101260.09;5085323;28;20040;-76
2022/08/03 01:46:53;;;;;;;4.30;2.20;;;;;;;19.97;75.74;101256.06;5083156;28;20756;-76
2022/08/03 01:49:20;;;;;;;4.85;2.00;;;;;;;19.88;76.20;101252.03;5082920;28;20020;-76
2022/08/03 01:51:47;;;;;;;4.30;2.35;;;;;;;19.81;76.40;101247.59;5079885;28;20027;-76
2022/08/03 01:54:13;;;;;;;5.20;2.25;;;;;;;19.74;76.59;101254.72;5078103;28;20138;-76
2022/08/03 01:56:41;;;;;;;5.80;2.30;;;;;;;19.72;76.82;101254.13;5081596;28;21124;-75
2022/08/03 01:59:10;;;;;;;3.15;2.25;;;;;;;19.71;76.74;101241.94;5076493;28;20035;-75
2022/08/03 02:01:37;;;;;;;5.10;2.10;;;;;;;19.62;77.02;101249.22;5058865;28;20032;-75
2022/08/03 02:04:05;;;;;;;3.30;2.45;;;;;;;19.53;77.65;101247.00;5084478;28;20114;-75
2022/08/03 02:06:33;;;;;;;5.63;2.20;;;;;;;19.44;77.96;101241.19;5083623;28;20475;-75
2022/08/03 02:09:01;;;;;;;9.52;2.72;;;;;;;19.39;78.02;101243.59;5082204;28;20036;-75
2022/08/03 02:11:27;;;;;;;3.00;2.20;;;;;;;19.37;78.24;101250.88;5081749;28;20027;-74
2022/08/03 02:13:54;;;;;;;6.55;2.38;;;;;;;19.33;78.47;101249.69;5085481;28;20104;-75
2022/08/03 02:16:22;;;;;;;5.43;2.10;;;;;;;19.28;78.20;101247.63;5083320;28;20131;-75
2022/08/03 02:18:47;;;;;;;8.52;2.60;;;;;;;19.24;78.51;101249.88;5087280;28;20070;-76
2022/08/03 02:21:14;;;;;;;7.90;2.58;;;;;;;19.24;78.52;101241.19;5065982;28;20051;-75
2022/08/03 02:23:39;;;;;;;5.25;1.92;;;;;;;19.26;78.40;101247.84;5079038;28;20047;-76
2022/08/03 02:26:10;;;;;;;4.97;2.40;;;;;;;19.32;78.28;101250.69;5081507;28;20119;-76
2022/08/03 02:28:40;;;;;;;4.13;2.47;;;;;;;19.31;78.15;101249.03;5082888;28;20039;-75
2022/08/03 02:31:12;;;;;;;4.13;2.47;;;;;;;19.26;78.56;101257.56;5083405;28;20089;-75
2022/08/03 02:33:42;;;;;;;4.50;2.03;;;;;;;19.17;79.01;101253.50;5077016;28;20035;-76
2022/08/03 02:36:09;;;;;;;5.53;2.00;;;;;;;19.10;79.12;101252.69;5065940;28;20462;-76
2022/08/03 02:38:39;;;;;;;6.00;2.75;;;;;;;19.09;79.13;101245.81;5079353;28;20561;-76
2022/08/03 02:41:11;;;;;;;6.13;2.75;;;;;;;19.09;79.06;101238.75;5081512;28;20039;-76
2022/08/03 02:43:39;;;;;;;3.33;2.35;;;;;;;19.10;79.23;101250.88;5074345;28;20481;-75
2022/08/03 02:46:08;;;;;;;4.07;1.92;;;;;;;19.08;79.42;101247.66;5067618;28;20038;-76
2022/08/03 02:48:37;;;;;;;7.80;2.55;;;;;;;19.09;79.08;101243.19;5096757;28;20036;-75
2022/08/03 02:51:03;;;;;;;4.70;2.70;;;;;;;19.05;79.28;101242.78;5083325;28;20056;-74
2022/08/03 02:53:32;;;;;;;10.00;2.55;;;;;;;18.92;79.60;101245.41;5083781;28;20597;-75
2022/08/03 02:55:59;;;;;;;12.55;2.15;;;;;;;18.82;80.14;101248.44;5079662;28;20086;-74
2022/08/03 02:58:25;;;;;;;6.22;2.25;;;;;;;18.78;80.38;101247.16;5078566;28;20101;-74
2022/08/03 03:00:52;;;;;;;8.18;2.60;;;;;;;18.73;80.86;101241.72;5083850;28;20523;-74
2022/08/03 03:03:20;;;;;;;6.88;2.45;;;;;;;18.70;80.99;101240.28;5088387;28;20039;-74
2022/08/03 03:05:46;;;;;;;5.28;2.30;;;;;;;18.66;81.24;101236.44;5088386;28;20024;-74
2022/08/03 03:08:13;;;;;;;4.78;2.45;;;;;;;18.60;81.67;101234.59;5085817;28;20511;-74
2022/08/03 03:10:40;;;;;;;6.97;2.33;;;;;;;18.56;82.13;101236.81;5084731;28;20024;-75
2022/08/03 03:13:07;;;;;;;6.57;2.85;;;;;;;18.51;82.18;101233.16;5085779;28;20060;-74
2022/08/03 03:15:35;;;;;;;6.70;2.80;;;;;;;18.47;82.54;101236.19;5086939;28;20039;-74
2022/08/03 03:18:02;;;;;;;6.43;2.65;;;;;;;18.45;82.69;101237.41;5084933;28;20089;-74
2022/08/03 03:20:28;;;;;;;6.20;2.50;;;;;;;18.47;82.76;101243.25;5086718;28;20093;-74
2022/08/03 03:22:54;;;;;;;5.43;2.85;;;;;;;18.45;82.81;101235.56;5086390;28;20074;-75
2022/08/03 03:25:20;;;;;;;4.68;2.65;;;;;;;18.44;82.75;101244.47;5080649;28;20040;-74
2022/08/03 03:27:47;;;;;;;6.07;2.22;;;;;;;18.42;82.77;101238.59;5086304;28;20070;-75
2022/08/03 03:30:13;;;;;;;4.70;2.75;;;;;;;18.41;82.78;101239.59;5086014;28;20047;-75
2022/08/03 03:32:39;;;;;;;2.67;2.00;;;;;;;18.39;82.84;101235.56;5081400;28;20512;-76
2022/08/03 03:35:06;;;;;;;7.78;2.42;;;;;;;18.32;83.08;101237.34;5080411;28;20036;-75
2022/08/03 03:37:32;;;;;;;3.75;2.42;;;;;;;18.23;83.31;101237.53;5080525;28;20033;-75
2022/08/03 03:39:57;;;;;;;7.60;2.45;;;;;;;18.19;83.49;101235.47;5084156;28;20078;-76
2022/08/03 03:42:24;;;;;;;10.15;2.60;;;;;;;18.16;83.68;101239.31;5086780;28;20473;-75
2022/08/03 03:44:50;;;;;;;8.88;2.85;;;;;;;18.12;83.80;101239.88;5062179;28;20047;-76
2022/08/03 03:47:16;;;;;;;8.95;2.40;;;;;;;18.09;83.95;101244.53;5081340;28;20031;-75
2022/08/03 03:49:41;;;;;;;3.40;2.25;;;;;;;18.13;83.61;101244.13;5083618;28;20294;-75
2022/08/03 03:52:07;;;;;;;5.97;2.40;;;;;;;18.17;83.45;101248.00;5085570;28;20439;-76
2022/08/03 03:54:40;;;;;;;5.82;2.60;;;;;;;18.22;83.30;101245.59;5082121;28;20031;-75
2022/08/03 03:57:06;;;;;;;3.47;2.17;;;;;;;18.26;82.64;101252.06;5086710;28;20040;-75
2022/08/03 03:59:31;;;;;;;8.05;2.42;;;;;;;18.30;82.37;101248.03;5087446;28;20032;-75
2022/08/03 04:01:57;;;;;;;6.45;2.40;;;;;;;18.32;82.16;101243.41;5083725;28;20039;-75
2022/08/03 04:12:38;;;;;;;5.55;2.10;;;;;;;18.07;83.83;101250.97;5084013;28;20439;-75
2022/08/03 04:15:06;;;;;;;6.45;2.38;;;;;;;18.12;83.32;101255.63;5089742;28;20616;-74
2022/08/03 04:17:31;;;;;;;11.65;3.10;;;;;;;18.13;83.06;101244.13;5084798;28;20073;-75
2022/08/03 04:19:59;;;;;;;6.32;2.70;;;;;;;18.10;83.33;101245.31;5086244;28;20442;-75
2022/08/03 04:22:28;;;;;;;5.85;2.63;;;;;;;18.06;83.74;101251.97;5083324;28;20504;-75
2022/08/03 04:25:07;;;;;;;5.97;2.72;;;;;;;18.00;84.03;101245.69;5077097;28;20040;-75
2022/08/03 04:27:37;;;;;;;11.95;3.08;;;;;;;17.96;84.23;101247.06;5085072;28;20544;-75
2022/08/03 04:30:05;;;;;;;7.07;2.50;;;;;;;17.94;84.23;101245.66;5085470;28;20042;-74
2022/08/03 04:32:32;;;;;;;5.50;2.20;;;;;;;17.94;84.20;101253.53;5076267;28;20404;-74
2022/08/03 04:34:58;;;;;;;6.47;2.28;;;;;;;17.94;84.32;101256.97;5085459;28;20056;-75
2022/08/03 04:37:39;;;;;;;7.95;2.53;;;;;;;17.93;84.60;101250.06;5085186;28;20035;-75
2022/08/03 04:40:12;;;;;;;12.68;2.50;;;;;;;17.94;84.77;101249.09;5095732;28;20042;-75
2022/08/03 04:42:39;;;;;;;6.45;2.58;;;;;;;17.97;84.69;101261.00;5073746;28;20028;-75
2022/08/03 04:45:05;;;;;;;7.05;2.72;;;;;;;17.96;85.05;101254.94;5087250;28;20115;-76
2022/08/03 04:47:33;;;;;;;7.15;2.83;;;;;;;17.95;85.25;101263.00;5086572;28;20036;-75
2022/08/03 04:50:01;;;;;;;4.90;2.67;;;;;;;17.95;85.15;101266.47;5085984;28;20040;-75
2022/08/03 04:52:26;;;;;;;7.45;2.80;;;;;;;17.99;85.25;101259.00;5084370;28;20097;-75
2022/08/03 04:54:52;;;;;;;7.80;2.97;;;;;;;18.00;85.18;101261.44;5079998;28;20489;-76
2022/08/03 04:57:18;;;;;;;8.45;3.38;;;;;;;18.05;85.10;101266.09;5082340;28;20062;-76
2022/08/03 04:59:43;;;;;;;18.00;3.67;;;;;;;18.15;84.81;101263.13;5081436;28;20044;-77
2022/08/03 05:02:09;;;;;;;10.80;3.88;;;;;;;18.29;83.87;101264.81;5087060;28;20032;-76
2022/08/03 05:04:34;;;;;;;10.90;3.72;;;;;;;18.27;84.03;101275.50;5085060;28;20336;-76
2022/08/03 05:07:00;;;;;;;9.45;3.03;;;;;;;18.28;84.46;101266.59;5078838;28;20028;-76
2022/08/03 05:09:25;;;;;;;7.07;3.15;;;;;;;18.30;84.79;101269.03;5080884;28;20023;-76
2022/08/03 05:11:51;;;;;;;14.55;2.90;;;;;;;18.33;84.33;101270.44;5082182;28;20475;-76
2022/08/03 05:14:16;;;;;;;10.15;3.85;;;;;;;18.40;84.15;101260.78;5084813;28;20036;-76
2022/08/03 05:16:42;;;;;;;8.23;3.00;;;;;;;18.48;83.30;101269.31;5085744;28;20434;-76
2022/08/03 05:19:07;;;;;;;10.93;2.80;;;;;;;18.59;82.92;101267.13;5086915;28;20027;-76
2022/08/03 05:21:33;;;;;;;11.20;3.55;;;;;;;18.71;82.36;101268.16;5085491;28;20047;-76
2022/08/03 05:23:58;;;;;;;11.00;3.95;;;;;;;18.79;82.40;101275.84;5078944;28;20033;-75
2022/08/03 05:26:24;;;;;;;7.35;3.00;;;;;;;18.85;82.43;101271.66;5087330;28;20081;-76
2022/08/03 05:28:49;;;;;;;9.35;3.45;;;;;;;18.90;82.08;101274.50;5082671;28;20524;-76
2022/08/03 05:31:15;;;;;;;12.13;3.45;;;;;;;18.93;81.97;101270.66;5082438;28;20032;-76
2022/08/03 05:33:42;;;;;;;7.63;3.05;;;;;;;18.97;81.87;101277.97;5081041;28;20077;-76
2022/08/03 05:36:07;;;;;;;6.28;3.05;;;;;;;19.05;81.13;101274.31;5087508;28;20028;-76
2022/08/03 05:38:33;;;;;;;15.25;3.90;;;;;;;19.11;80.79;101272.72;5063683;28;20035;-76
2022/08/03 05:40:58;;;;;;;9.77;3.30;;;;;;;19.16;80.79;101275.56;5077793;28;20377;-76
2022/08/03 05:43:24;;;;;;;9.27;2.90;;;;;;;19.19;80.65;101275.97;5088069;28;20105;-76
2022/08/03 05:45:49;;;;;;;8.65;3.92;;;;;;;19.24;80.48;101263.00;5084915;28;20048;-76
2022/08/03 05:48:15;;;;;;;14.43;3.47;;;;;;;19.39;79.86;101273.31;5071374;28;20027;-76
2022/08/03 05:50:40;;;;;;;7.28;3.10;;;;;;;19.40;80.23;101272.31;5069019;28;20233;-76
2022/08/03 05:53:06;;;;;;;11.80;3.80;;;;;;;19.46;80.13;101281.22;5085992;28;20055;-76
2022/08/03 05:55:31;;;;;;;11.50;3.30;;;;;;;19.55;79.80;101271.28;5081738;28;20045;-75
2022/08/03 05:57:57;;;;;;;9.05;3.22;;;;;;;19.70;79.20;101266.59;5083382;28;20039;-75
2022/08/03 06:00:23;;;;;;;11.65;3.03;;;;;;;20.00;78.76;101272.25;5079045;28;20073;-75
2022/08/03 06:02:48;;;;;;;11.05;3.80;;;;;;;20.38;76.68;101274.13;5085838;28;20396;-75
2022/08/03 06:05:14;;;;;;;7.35;2.92;;;;;;;20.79;75.15;101275.59;5086053;28;20038;-75
2022/08/03 06:07:39;;;;;;;9.13;3.50;;;;;;;21.18;73.96;101263.13;5079206;28;20032;-75
2022/08/03 06:10:05;;;;;;;7.35;3.40;;;;;;;21.62;72.21;101273.72;5084412;28;20500;-75
2022/08/03 06:12:34;;;;;;;6.05;2.80;;;;;;;22.02;70.57;101273.31;5082426;28;20042;-75
2022/08/03 06:15:01;;;;;;;9.60;2.95;;;;;;;22.30;68.65;101270.19;5077932;28;20411;-75
2022/08/03 06:17:26;;;;;;;10.07;3.17;;;;;;;22.53;67.73;101266.03;5080328;28;20115;-75
2022/08/03 06:19:52;;;;;;;9.38;2.80;;;;;;;22.94;67.32;101270.50;5081449;28;20032;-76
2022/08/03 06:22:18;;;;;;;8.73;2.80;;;;;;;23.21;64.29;101270.09;5072249;28;20028;-76
2022/08/03 06:24:44;;;;;;;8.90;3.50;;;;;;;23.40;64.01;101265.50;5081589;28;20054;-76
2022/08/03 06:27:11;;;;;;;10.15;2.65;;;;;;;23.59;64.00;101268.84;5079234;28;20028;-76
2022/08/03 06:29:36;;;;;;;7.07;2.58;;;;;;;23.95;63.38;101266.19;5080843;28;21129;-76
2022/08/03 06:32:02;;;;;;;6.93;2.40;;;;;;;24.32;61.83;101263.16;5084190;28;20036;-75
2022/08/03 06:34:27;;;;;;;5.47;2.35;;;;;;;24.54;61.53;101264.13;5083207;28;20377;-76
2022/08/03 06:36:53;;;;;;;7.72;2.50;;;;;;;24.78;59.87;101264.81;5086509;28;20028;-76
2022/08/03 06:39:20;;;;;;;14.88;2.80;;;;;;;24.85;59.89;101264.69;5063396;28;20073;-77
2022/08/03 06:41:45;;;;;;;6.38;2.15;;;;;;;25.03;59.27;101266.28;5074949;28;20115;-76
2022/08/03 06:44:11;;;;;;;7.72;4.05;;;;;;;25.15;58.93;101264.34;5082519;28;20043;-76
2022/08/03 06:46:36;;;;;;;7.70;3.00;;;;;;;25.21;59.44;101267.88;5071163;28;20040;-78
2022/08/03 06:49:02;;;;;;;10.52;2.85;;;;;;;25.35;58.18;101269.16;5080230;28;20502;-76
2022/08/03 06:51:28;;;;;;;7.40;2.22;;;;;;;25.45;57.91;101274.63;5074945;28;20043;-77
2022/08/03 06:53:53;;;;;;;4.68;2.25;;;;;;;25.68;57.25;101274.69;5077357;28;20089;-76
2022/08/03 06:56:19;;;;;;;7.93;2.08;;;;;;;25.74;57.25;101269.19;5077161;28;20105;-76
2022/08/03 06:58:46;;;;;;;4.85;1.58;;;;;;;25.82;57.10;101271.44;5082165;28;20051;-76
2022/08/03 07:01:12;;;;;;;6.22;2.13;;;;;;;25.89;56.43;101268.56;5081234;28;21793;-77
2022/08/03 07:03:39;;;;;;;5.03;1.73;;;;;;;25.84;57.19;101271.16;5081395;28;20047;-76
2022/08/03 07:06:05;;;;;;;4.13;1.65;;;;;;;26.11;56.33;101268.59;5080928;28;20028;-76
2022/08/03 07:08:30;;;;;;;5.07;1.65;;;;;;;26.47;56.32;101271.63;5082559;28;20039;-76
2022/08/03 07:10:56;;;;;;;8.55;1.60;;;;;;;26.97;54.46;101267.84;5059706;28;20032;-76
2022/08/03 07:13:21;;;;;;;4.63;2.17;;;;;;;27.24;52.99;101268.81;5083965;28;20036;-75
2022/08/03 07:15:47;;;;;;;6.25;1.73;;;;;;;27.55;51.96;101275.16;5080905;28;20028;-76
2022/08/03 07:18:12;;;;;;;5.78;1.63;;;;;;;27.86;51.53;101276.09;5081436;28;20032;-76
2022/08/03 07:20:38;;;;;;;9.27;1.73;;;;;;;28.48;49.33;101271.75;5056401;28;20497;-79
2022/08/03 07:23:03;;;;;;;5.15;1.55;;;;;;;28.86;48.17;101271.53;5082438;28;20060;-76
2022/08/03 07:25:29;;;;;;;9.98;2.20;;;;;;;29.24;46.96;101272.84;5075959;28;20029;-77
2022/08/03 07:27:54;;;;;;;9.55;1.90;;;;;;;29.49;45.96;101271.19;5079032;28;20036;-76
2022/08/03 07:30:20;;;;;;;3.83;1.13;;;;;;;29.88;45.55;101274.00;5078837;28;20485;-77
2022/08/03 07:32:45;;;;;;;6.20;1.40;;;;;;;30.43;44.47;101265.16;5077378;28;20374;-77
2022/08/03 07:35:11;;;;;;;3.42;1.58;;;;;;;30.67;43.19;101274.06;5075938;28;20058;-77
2022/08/03 07:37:36;;;;;;;3.28;1.42;;;;;;;30.88;42.86;101271.22;5057317;28;20059;-77
2022/08/03 07:40:03;;;;;;;7.13;1.27;;;;;;;30.97;42.25;101279.47;5077705;28;20033;-76
2022/08/03 07:42:29;;;;;;;6.85;1.42;;;;;;;30.93;41.43;101273.06;5060459;28;20070;-77
2022/08/03 07:44:56;;;;;;;3.95;1.33;;;;;;;31.12;40.76;101263.25;5082100;28;20617;-77
2022/08/03 07:47:27;;;;;;;2.83;1.17;;;;;;;31.30;40.37;101268.97;5082858;28;20032;-77
2022/08/03 07:49:53;;;;;;;5.03;1.23;;;;;;;31.66;40.05;101264.00;5086493;28;20039;-77
2022/08/03 07:55:05;;;;;;;3.00;1.35;;;;;;;31.91;40.00;101254.03;5081763;28;20115;-75
2022/08/03 07:57:30;;;;;;;7.53;1.40;;;;;;;31.88;40.13;101268.81;5083439;28;20026;-77
2022/08/03 07:59:56;;;;;;;5.93;1.20;;;;;;;31.75;39.80;101258.81;5082492;28;20036;-76
2022/08/03 08:02:21;;;;;;;6.28;1.33;;;;;;;32.03;39.78;101264.38;5067997;28;20082;-76
2022/08/03 08:04:47;;;;;;;4.18;1.45;;;;;;;32.31;38.94;101259.94;5082337;28;20028;-80
2022/08/03 08:07:12;;;;;;;5.93;1.08;;;;;;;32.54;38.69;101259.03;5093518;28;20043;-76
2022/08/03 08:09:38;;;;;;;11.00;1.25;;;;;;;32.33;39.49;101261.25;5090719;28;20035;-79
2022/08/03 08:12:04;;;;;;;7.05;1.25;;;;;;;32.46;38.92;101261.59;5090455;28;20443;-77
2022/08/03 08:14:29;;;;;;;2.67;1.10;;;;;;;32.66;38.67;101252.44;5085757;28;20040;-76
2022/08/03 08:16:55;;;;;;;11.00;1.83;;;;;;;32.68;38.55;101261.81;5085636;28;20088;-78
2022/08/03 08:19:20;;;;;;;7.40;1.50;;;;;;;32.71;38.11;101261.19;5087460;28;20024;-76
2022/08/03 08:21:46;;;;;;;3.88;1.02;;;;;;;33.15;36.92;101254.53;5091593;28;20530;-77
2022/08/03 08:24:12;;;;;;;4.70;1.73;;;;;;;33.13;37.35;101251.38;5074575;28;20469;-77
2022/08/03 08:26:37;;;;;;;4.78;1.50;;;;;;;33.46;37.43;101262.00;5090611;28;20020;-77
2022/08/03 08:29:03;;;;;;;5.32;1.42;;;;;;;33.44;36.49;101253.44;5086448;28;20373;-77
2022/08/03 08:31:28;;;;;;;2.88;1.13;;;;;;;33.22;36.33;101253.34;5089921;28;20027;-77
2022/08/03 08:33:54;;;;;;;3.47;1.60;;;;;;;33.79;35.91;101256.50;5087862;28;20050;-80
2022/08/03 08:36:19;;;;;;;5.85;1.75;;;;;;;33.69;36.15;101260.19;5084164;28;20024;-77
2022/08/03 08:38:45;;;;;;;5.20;1.27;;;;;;;33.98;34.28;101256.34;5090304;28;20032;-77
2022/08/03 08:41:12;;;;;;;7.50;1.13;;;;;;;33.91;34.92;101254.09;5089175;28;20026;-76
2022/08/03 08:43:37;;;;;;;2.85;1.05;;;;;;;34.04;34.93;101257.84;5088612;28;20503;-76
2022/08/03 08:46:07;;;;;;;9.95;1.33;;;;;;;33.96;34.93;101257.75;5085286;28;20036;-76
2022/08/03 08:48:34;;;;;;;5.80;1.77;;;;;;;33.92;34.08;101260.25;5086416;28;20035;-76
2022/08/03 08:51:01;;;;;;;4.80;1.27;;;;;;;33.96;34.70;101255.84;5062847;28;20073;-78
2022/08/03 08:53:28;;;;;;;4.63;1.00;;;;;;;33.97;35.29;101260.13;5085886;28;20506;-78
2022/08/03 08:55:59;;;;;;;5.05;1.10;;;;;;;34.02;34.95;101251.97;5085558;28;20065;-79
2022/08/03 08:58:27;;;;;;;5.05;1.02;;;;;;;34.17;34.48;101245.47;5085695;28;20133;-77
2022/08/03 09:00:53;;;;;;;5.10;1.35;;;;;;;34.44;33.73;101249.91;5084831;28;20140;-77
2022/08/03 09:03:19;;;;;;;8.38;1.73;;;;;;;34.47;34.22;101249.31;5089610;28;20028;-77
2022/08/03 09:05:45;;;;;;;3.92;1.20;;;;;;;34.54;33.91;101253.47;5086221;28;20590;-77
2022/08/03 09:08:11;;;;;;;5.70;1.30;;;;;;;34.00;34.43;101245.28;5088011;28;20424;-76
2022/08/03 09:10:36;;;;;;;5.88;1.10;;;;;;;34.15;34.64;101253.00;5079947;28;20177;-76
2022/08/03 09:13:02;;;;;;;7.72;1.23;;;;;;;34.44;34.15;101251.81;5088754;28;20044;-76
2022/08/03 09:15:32;;;;;;;3.40;1.00;;;;;;;34.33;33.62;101249.34;5088234;28;20043;-76
2022/08/03 09:18:00;;;;;;;2.78;0.85;;;;;;;34.46;33.56;101249.63;5088177;28;20047;-77
2022/08/03 09:20:30;;;;;;;5.38;1.73;;;;;;;34.41;33.64;101250.50;5084418;28;20040;-76
2022/08/03 09:22:57;;;;;;;4.80;1.30;;;;;;;34.60;33.32;101258.38;5090271;28;20043;-77
2022/08/03 09:25:37;;;;;;;6.32;1.20;;;;;;;34.46;33.67;101255.78;5083471;28;20036;-77
2022/08/03 09:28:11;;;;;;;2.75;1.15;;;;;;;34.82;33.33;101251.41;5090026;28;20492;-76
2022/08/03 09:30:40;;;;;;;4.22;1.00;;;;;;;34.92;32.92;101251.13;5082447;28;20396;-76
2022/08/03 09:33:10;;;;;;;4.15;1.27;;;;;;;35.10;33.47;101249.31;5091171;28;20359;-75
2022/08/03 09:35:43;;;;;;;5.90;1.30;;;;;;;35.13;32.91;101245.19;5068951;28;20020;-76
2022/08/03 09:38:13;;;;;;;7.20;1.80;;;;;;;35.18;32.31;101242.41;5082318;28;20498;-76
2022/08/03 09:40:39;;;;;;;3.40;1.30;;;;;;;35.43;32.30;101246.25;5085870;28;20028;-76
2022/08/03 09:43:09;;;;;;;2.40;1.00;;;;;;;35.31;32.28;101240.69;5077168;28;20035;-75
2022/08/03 09:45:36;;;;;;;6.90;1.10;;;;;;;35.18;32.65;101245.09;5082498;28;20110;-77
2022/08/03 09:48:20;;;;;;;3.03;0.80;;;;;;;34.84;32.49;101250.00;5080915;28;20089;-77
2022/08/03 09:51:04;;;;;;;4.18;0.90;;;;;;;34.71;33.25;101246.28;5083137;28;20028;-75
2022/08/03 09:53:29;;;;;;;4.32;1.08;;;;;;;34.67;32.89;101239.94;5080265;28;20028;-77
2022/08/03 09:55:58;;;;;;;4.15;0.80;;;;;;;34.72;33.42;101244.41;5074013;28;20047;-77
2022/08/03 09:58:25;;;;;;;4.18;1.13;;;;;;;34.77;33.28;101241.56;5082976;28;20076;-77
2022/08/03 10:00:59;;;;;;;4.07;1.20;;;;;;;34.46;33.42;101245.00;5080231;28;20039;-76
2022/08/03 10:03:27;;;;;;;5.55;1.10;;;;;;;34.57;33.45;101244.78;5067482;28;20088;-77
2022/08/03 10:05:53;;;;;;;3.58;1.00;;;;;;;34.44;33.90;101235.66;5087905;28;20070;-77
2022/08/03 10:08:19;;;;;;;2.20;0.80;;;;;;;34.38;34.11;101235.00;5085734;28;20032;-76
2022/08/03 10:10:48;;;;;;;7.25;0.90;;;;;;;34.81;33.09;101230.97;5103796;27;20096;-76
2022/08/03 10:13:15;;;;;;;3.97;0.82;;;;;;;34.64;32.95;101245.94;5082424;28;20035;-80
2022/08/03 10:15:40;;;;;;;6.88;0.75;;;;;;;34.68;33.24;101230.78;5081563;28;20042;-76
2022/08/03 10:18:06;;;;;;;4.68;0.73;;;;;;;34.56;33.25;101233.19;5057886;28;20028;-76
2022/08/03 10:20:42;;;;;;;1.80;0.70;;;;;;;34.79;33.72;101227.81;5086580;28;20023;-76
2022/08/03 10:23:09;;;;;;;3.60;0.80;;;;;;;35.07;32.57;101229.16;5085941;28;20093;-75
2022/08/03 10:25:37;;;;;;;4.10;1.30;;;;;;;35.06;33.21;101224.13;5083260;28;20033;-78
2022/08/03 10:28:04;;;;;;;5.70;0.90;;;;;;;34.72;33.59;101222.88;5068840;28;20533;-76
2022/08/03 10:30:31;;;;;;;5.43;1.00;;;;;;;34.63;32.97;101222.78;5079465;28;20047;-76
2022/08/03 10:33:03;;;;;;;3.90;1.70;;;;;;;34.68;33.36;101217.31;5065301;28;20043;-77
2022/08/03 10:35:29;;;;;;;3.47;0.90;;;;;;;34.86;32.71;101223.56;5087299;28;20123;-76
2022/08/03 10:38:01;;;;;;;4.03;1.00;;;;;;;34.80;32.51;101215.94;5083865;28;20531;-77
2022/08/03 10:40:29;;;;;;;4.05;1.00;;;;;;;34.63;33.06;101224.69;5083380;28;20412;-77
2022/08/03 10:43:01;;;;;;;4.43;1.00;;;;;;;34.65;33.05;101214.41;5070163;28;20028;-78
2022/08/03 10:45:26;;;;;;;3.90;1.00;;;;;;;34.61;33.02;101208.06;5083960;28;20017;-76
2022/08/03 10:47:54;;;;;;;2.60;0.80;;;;;;;34.71;33.03;101213.97;5087362;28;20533;-77
2022/08/03 10:50:23;;;;;;;3.00;1.00;;;;;;;34.52;32.79;101205.31;5088471;28;20044;-77
2022/08/03 10:53:06;;;;;;;5.10;1.00;;;;;;;34.50;32.75;101211.00;5085158;28;20031;-79
2022/08/03 10:58:37;;;;;;;3.17;0.88;;;;;;;34.56;32.12;101208.97;5074314;28;20086;-78
2022/08/03 11:01:10;;;;;;;5.00;1.13;;;;;;;34.62;33.08;101202.38;5081027;28;20584;-76
2022/08/03 11:03:51;;;;;;;3.90;1.42;;;;;;;34.58;32.87;101193.31;5083767;28;20039;-77
2022/08/03 11:06:24;;;;;;;6.50;0.98;;;;;;;34.93;32.77;101180.03;5083562;28;20031;-77
2022/08/03 11:09:09;;;;;;;3.83;0.90;;;;;;;35.02;32.58;101194.31;5064002;28;20040;-77
2022/08/03 11:11:42;;;;;;;1.63;1.17;;;;;;;34.81;32.95;101198.66;5083600;28;20054;-77
2022/08/03 11:14:10;;;;;;;4.57;1.05;;;;;;;34.63;32.71;101195.09;5079419;28;20028;-77
2022/08/03 11:16:48;;;;;;;1.92;0.85;;;;;;;34.97;32.47;101197.16;5084548;28;20024;-77
2022/08/03 11:19:21;;;;;;;6.05;0.98;;;;;;;35.02;32.02;101188.94;5080107;28;20500;-78
2022/08/03 11:21:49;;;;;;;3.08;0.80;;;;;;;35.19;32.06;101192.78;5069924;28;20101;-77
2022/08/03 11:24:40;;;;;;;4.25;1.05;;;;;;;34.81;31.85;101185.19;5090075;28;20024;-77
2022/08/03 11:27:27;;;;;;;4.10;1.73;;;;;;;35.12;31.95;101182.44;5089642;28;20484;-78
2022/08/03 11:30:10;;;;;;;2.85;1.30;;;;;;;35.44;31.82;101181.25;5077018;28;20413;-77
2022/08/03 11:32:39;;;;;;;3.95;1.10;;;;;;;35.04;31.84;101180.53;5088684;28;20024;-77
2022/08/03 11:35:16;;;;;;;5.13;1.40;;;;;;;35.13;31.57;101180.53;5076778;28;20490;-77
2022/08/03 11:37:57;;;;;;;6.93;1.10;;;;;;;35.32;31.51;101173.03;5089549;28;20028;-77
2022/08/03 11:40:37;;;;;;;3.22;1.10;;;;;;;35.41;31.45;101173.81;5087548;28;20066;-80
2022/08/03 11:43:05;;;;;;;3.08;0.90;;;;;;;35.35;31.76;101176.97;5091033;28;20032;-78